sensor_id;sensor_type;location;lat;lon;timestamp;temperature;humidity
34279;DHT22;20538;51.528;9.942;2022-08-19T00:00:06;20.20;99.90
34279;DHT22;20538;51.528;9.942;2022-08-19T00:02:33;20.20;99.90
34279;DHT22;20538;51.528;9.942;2022-08-19T00:04:58;20.30;99.90
34279;DHT22;20538;51.528;9.942;2022-08-19T00:07:24;20.30;99.90
34279;DHT22;20538;51.528;9.942;2022-08-19T00:09:50;20.30;99.90
34279;DHT22;20538;51.528;9.942;2022-08-19T00:12:15;20.20;99.90
34279;DHT22;20538;51.528;9.942;2022-08-19T00:14:41;20.20;99.90
34279;DHT22;20538;51.528;9.942;2022-08-19T00:17:08;20.10;99.90
34279;DHT22;20538;51.528;9.942;2022-08-19T00:19:34;20.10;99.90
34279;DHT22;20538;51.528;9.942;2022-08-19T00:22:00;20.10;99.90
34279;DHT22;20538;51.528;9.942;2022-08-19T00:24:28;20.10;99.90
34279;DHT22;20538;51.528;9.942;2022-08-19T00:26:55;20.10;99.90
34279;DHT22;20538;51.528;9.942;2022-08-19T00:29:23;20.20;99.90
34279;DHT22;20538;51.528;9.942;2022-08-19T00:31:50;20.10;99.90
34279;DHT22;20538;51.528;9.942;2022-08-19T00:34:18;20.10;99.90
34279;DHT22;20538;51.528;9.942;2022-08-19T00:36:45;20.10;99.90
34279;DHT22;20538;51.528;9.942;2022-08-19T00:39:13;20.10;99.90
34279;DHT22;20538;51.528;9.942;2022-08-19T00:41:39;20.20;99.90
34279;DHT22;20538;51.528;9.942;2022-08-19T00:46:34;20.10;99.90
34279;DHT22;20538;51.528;9.942;2022-08-19T00:49:09;20.10;99.90
34279;DHT22;20538;51.528;9.942;2022-08-19T00:51:35;20.10;99.90
34279;DHT22;20538;51.528;9.942;2022-08-19T00:54:02;20.10;99.90
34279;DHT22;20538;51.528;9.942;2022-08-19T00:56:29;20.10;99.90
34279;DHT22;20538;51.528;9.942;2022-08-19T00:58:58;20.00;99.90
34279;DHT22;20538;51.528;9.942;2022-08-19T01:01:23;20.10;99.90
34279;DHT22;20538;51.528;9.942;2022-08-19T01:03:49;20.10;99.90
34279;DHT22;20538;51.528;9.942;2022-08-19T01:06:15;20.10;99.90
34279;DHT22;20538;51.528;9.942;2022-08-19T01:08:41;20.10;99.90
34279;DHT22;20538;51.528;9.942;2022-08-19T01:11:07;20.00;99.90
34279;DHT22;20538;51.528;9.942;2022-08-19T01:13:34;20.00;99.90
34279;DHT22;20538;51.528;9.942;2022-08-19T01:16:04;20.00;99.90
34279;DHT22;20538;51.528;9.942;2022-08-19T01:18:31;20.00;99.90
34279;DHT22;20538;51.528;9.942;2022-08-19T01:23:39;19.90;99.90
34279;DHT22;20538;51.528;9.942;2022-08-19T01:26:11;19.90;99.90
34279;DHT22;20538;51.528;9.942;2022-08-19T01:28:38;19.90;99.90
34279;DHT22;20538;51.528;9.942;2022-08-19T01:31:05;19.80;99.90
34279;DHT22;20538;51.528;9.942;2022-08-19T01:33:31;19.80;99.90
34279;DHT22;20538;51.528;9.942;2022-08-19T01:36:09;19.80;99.90
34279;DHT22;20538;51.528;9.942;2022-08-19T01:38:37;19.80;99.90
34279;DHT22;20538;51.528;9.942;2022-08-19T01:41:03;19.80;99.90
34279;DHT22;20538;51.528;9.942;2022-08-19T01:43:29;19.80;99.90
34279;DHT22;20538;51.528;9.942;2022-08-19T01:45:55;19.80;99.90
34279;DHT22;20538;51.528;9.942;2022-08-19T01:48:21;19.80;99.90
34279;DHT22;20538;51.528;9.942;2022-08-19T01:50:47;19.80;99.90
34279;DHT22;20538;51.528;9.942;2022-08-19T01:53:13;19.80;99.90
34279;DHT22;20538;51.528;9.942;2022-08-19T01:55:40;19.80;99.90
34279;DHT22;20538;51.528;9.942;2022-08-19T01:58:10;19.70;99.90
34279;DHT22;20538;51.528;9.942;2022-08-19T02:00:36;19.80;99.90
34279;DHT22;20538;51.528;9.942;2022-08-19T02:03:02;19.80;99.90
34279;DHT22;20538;51.528;9.942;2022-08-19T02:05:28;19.70;99.90
34279;DHT22;20538;51.528;9.942;2022-08-19T02:07:55;19.70;99.90
34279;DHT22;20538;51.528;9.942;2022-08-19T02:10:22;19.70;99.90
34279;DHT22;20538;51.528;9.942;2022-08-19T02:12:48;19.80;99.90
34279;DHT22;20538;51.528;9.942;2022-08-19T02:15:19;19.70;99.90
34279;DHT22;20538;51.528;9.942;2022-08-19T02:17:45;19.70;99.90
34279;DHT22;20538;51.528;9.942;2022-08-19T02:20:12;19.70;99.90
34279;DHT22;20538;51.528;9.942;2022-08-19T02:22:38;19.70;99.90
34279;DHT22;20538;51.528;9.942;2022-08-19T02:25:07;19.60;99.90
34279;DHT22;20538;51.528;9.942;2022-08-19T02:29:59;19.60;99.90
34279;DHT22;20538;51.528;9.942;2022-08-19T02:32:26;19.60;99.90
34279;DHT22;20538;51.528;9.942;2022-08-19T02:34:52;19.60;99.90
34279;DHT22;20538;51.528;9.942;2022-08-19T02:37:18;19.60;99.90
34279;DHT22;20538;51.528;9.942;2022-08-19T02:40:02;19.50;99.90
34279;DHT22;20538;51.528;9.942;2022-08-19T02:42:28;19.50;99.90
34279;DHT22;20538;51.528;9.942;2022-08-19T02:44:55;19.50;99.90
34279;DHT22;20538;51.528;9.942;2022-08-19T02:47:23;19.60;99.90
34279;DHT22;20538;51.528;9.942;2022-08-19T02:49:49;19.60;99.90
34279;DHT22;20538;51.528;9.942;2022-08-19T02:52:15;19.60;99.90
34279;DHT22;20538;51.528;9.942;2022-08-19T02:54:41;19.60;99.90
34279;DHT22;20538;51.528;9.942;2022-08-19T02:57:07;19.60;99.90
34279;DHT22;20538;51.528;9.942;2022-08-19T02:59:33;19.60;99.90
34279;DHT22;20538;51.528;9.942;2022-08-19T03:01:59;19.50;99.90
34279;DHT22;20538;51.528;9.942;2022-08-19T03:04:25;19.50;99.90
34279;DHT22;20538;51.528;9.942;2022-08-19T03:06:51;19.50;99.90
34279;DHT22;20538;51.528;9.942;2022-08-19T03:09:19;19.40;99.90
34279;DHT22;20538;51.528;9.942;2022-08-19T03:11:45;19.50;99.90
34279;DHT22;20538;51.528;9.942;2022-08-19T03:14:11;19.50;99.90
34279;DHT22;20538;51.528;9.942;2022-08-19T03:16:44;19.50;99.90
34279;DHT22;20538;51.528;9.942;2022-08-19T03:19:10;19.40;99.90
34279;DHT22;20538;51.528;9.942;2022-08-19T03:21:35;19.50;99.90
34279;DHT22;20538;51.528;9.942;2022-08-19T03:24:05;19.50;99.90
34279;DHT22;20538;51.528;9.942;2022-08-19T03:26:31;19.50;99.90
34279;DHT22;20538;51.528;9.942;2022-08-19T03:28:57;19.50;99.90
34279;DHT22;20538;51.528;9.942;2022-08-19T03:31:27;19.40;99.90
34279;DHT22;20538;51.528;9.942;2022-08-19T03:33:52;19.40;99.90
34279;DHT22;20538;51.528;9.942;2022-08-19T03:36:21;19.40;99.90
34279;DHT22;20538;51.528;9.942;2022-08-19T03:38:51;19.50;99.90
34279;DHT22;20538;51.528;9.942;2022-08-19T03:41:20;19.40;99.90
34279;DHT22;20538;51.528;9.942;2022-08-19T03:43:47;19.40;99.90
34279;DHT22;20538;51.528;9.942;2022-08-19T03:46:16;19.40;99.90
34279;DHT22;20538;51.528;9.942;2022-08-19T03:48:43;19.50;99.90
34279;DHT22;20538;51.528;9.942;2022-08-19T03:51:29;19.40;99.90
34279;DHT22;20538;51.528;9.942;2022-08-19T03:54:00;19.50;99.90
34279;DHT22;20538;51.528;9.942;2022-08-19T03:56:27;19.50;99.90
34279;DHT22;20538;51.528;9.942;2022-08-19T03:58:54;19.40;99.90
34279;DHT22;20538;51.528;9.942;2022-08-19T04:01:22;19.40;99.90
34279;DHT22;20538;51.528;9.942;2022-08-19T04:03:49;19.40;99.90
34279;DHT22;20538;51.528;9.942;2022-08-19T04:06:25;19.40;99.90
34279;DHT22;20538;51.528;9.942;2022-08-19T04:08:52;19.40;99.90
34279;DHT22;20538;51.528;9.942;2022-08-19T04:11:22;19.30;99.90
34279;DHT22;20538;51.528;9.942;2022-08-19T04:13:50;19.40;99.90
34279;DHT22;20538;51.528;9.942;2022-08-19T04:16:17;19.40;99.90
34279;DHT22;20538;51.528;9.942;2022-08-19T04:18:43;19.30;99.90
34279;DHT22;20538;51.528;9.942;2022-08-19T04:21:16;19.30;99.90
34279;DHT22;20538;51.528;9.942;2022-08-19T04:23:42;19.30;99.90
34279;DHT22;20538;51.528;9.942;2022-08-19T04:26:16;19.40;99.90
34279;DHT22;20538;51.528;9.942;2022-08-19T04:28:42;19.30;99.90
34279;DHT22;20538;51.528;9.942;2022-08-19T04:31:17;19.40;99.90
34279;DHT22;20538;51.528;9.942;2022-08-19T04:33:43;19.40;99.90
34279;DHT22;20538;51.528;9.942;2022-08-19T04:36:17;19.40;99.90
34279;DHT22;20538;51.528;9.942;2022-08-19T04:38:44;19.50;99.90
34279;DHT22;20538;51.528;9.942;2022-08-19T04:41:10;19.40;99.90
34279;DHT22;20538;51.528;9.942;2022-08-19T04:43:54;19.40;99.90
34279;DHT22;20538;51.528;9.942;2022-08-19T04:46:20;19.40;99.90
34279;DHT22;20538;51.528;9.942;2022-08-19T04:48:46;19.40;99.90
34279;DHT22;20538;51.528;9.942;2022-08-19T04:51:12;19.40;99.90
34279;DHT22;20538;51.528;9.942;2022-08-19T04:53:39;19.40;99.90
34279;DHT22;20538;51.528;9.942;2022-08-19T04:56:16;19.40;99.90
34279;DHT22;20538;51.528;9.942;2022-08-19T04:58:43;19.40;99.90
34279;DHT22;20538;51.528;9.942;2022-08-19T05:01:19;19.40;99.90
34279;DHT22;20538;51.528;9.942;2022-08-19T05:03:45;19.40;99.90
34279;DHT22;20538;51.528;9.942;2022-08-19T05:06:14;19.40;99.90
34279;DHT22;20538;51.528;9.942;2022-08-19T05:08:41;19.40;99.90
34279;DHT22;20538;51.528;9.942;2022-08-19T05:11:15;19.50;99.90
34279;DHT22;20538;51.528;9.942;2022-08-19T05:13:42;19.40;99.90
34279;DHT22;20538;51.528;9.942;2022-08-19T05:16:10;19.50;99.90
34279;DHT22;20538;51.528;9.942;2022-08-19T05:18:36;19.50;99.90
34279;DHT22;20538;51.528;9.942;2022-08-19T05:21:20;19.50;99.90
34279;DHT22;20538;51.528;9.942;2022-08-19T05:24:06;19.50;99.90
34279;DHT22;20538;51.528;9.942;2022-08-19T05:26:43;19.50;99.90
34279;DHT22;20538;51.528;9.942;2022-08-19T05:29:12;19.60;99.90
34279;DHT22;20538;51.528;9.942;2022-08-19T05:31:38;19.50;99.90
34279;DHT22;20538;51.528;9.942;2022-08-19T05:34:05;19.40;99.90
34279;DHT22;20538;51.528;9.942;2022-08-19T05:36:35;19.50;99.90
34279;DHT22;20538;51.528;9.942;2022-08-19T05:39:03;19.60;99.90
34279;DHT22;20538;51.528;9.942;2022-08-19T05:41:29;19.50;99.90
34279;DHT22;20538;51.528;9.942;2022-08-19T05:44:01;19.60;99.90
34279;DHT22;20538;51.528;9.942;2022-08-19T05:46:27;19.60;99.90
34279;DHT22;20538;51.528;9.942;2022-08-19T05:48:52;19.70;99.90
34279;DHT22;20538;51.528;9.942;2022-08-19T05:51:22;19.70;99.90
34279;DHT22;20538;51.528;9.942;2022-08-19T05:53:48;19.80;99.90
34279;DHT22;20538;51.528;9.942;2022-08-19T05:56:16;19.80;99.90
34279;DHT22;20538;51.528;9.942;2022-08-19T05:58:44;19.80;99.90
34279;DHT22;20538;51.528;9.942;2022-08-19T06:01:13;19.80;99.90
34279;DHT22;20538;51.528;9.942;2022-08-19T06:03:40;19.90;99.90
34279;DHT22;20538;51.528;9.942;2022-08-19T06:06:08;19.90;99.90
34279;DHT22;20538;51.528;9.942;2022-08-19T06:08:35;20.00;99.90
34279;DHT22;20538;51.528;9.942;2022-08-19T06:11:24;20.10;99.90
34279;DHT22;20538;51.528;9.942;2022-08-19T06:13:53;20.10;99.90
34279;DHT22;20538;51.528;9.942;2022-08-19T06:16:20;20.20;99.90
34279;DHT22;20538;51.528;9.942;2022-08-19T06:18:52;20.10;99.90
34279;DHT22;20538;51.528;9.942;2022-08-19T06:21:22;20.10;99.90
34279;DHT22;20538;51.528;9.942;2022-08-19T06:23:49;20.20;99.90
34279;DHT22;20538;51.528;9.942;2022-08-19T06:26:18;20.00;99.90
34279;DHT22;20538;51.528;9.942;2022-08-19T06:28:45;20.10;99.90
34279;DHT22;20538;51.528;9.942;2022-08-19T06:31:15;20.20;99.90
34279;DHT22;20538;51.528;9.942;2022-08-19T06:33:42;20.00;99.90
34279;DHT22;20538;51.528;9.942;2022-08-19T06:36:26;20.10;99.90
34279;DHT22;20538;51.528;9.942;2022-08-19T06:39:04;19.90;99.90
34279;DHT22;20538;51.528;9.942;2022-08-19T06:41:34;19.70;99.90
34279;DHT22;20538;51.528;9.942;2022-08-19T06:44:00;19.70;99.90
34279;DHT22;20538;51.528;9.942;2022-08-19T06:46:26;19.80;99.90
34279;DHT22;20538;51.528;9.942;2022-08-19T06:48:52;20.00;99.90
34279;DHT22;20538;51.528;9.942;2022-08-19T06:51:20;20.30;99.90
34279;DHT22;20538;51.528;9.942;2022-08-19T06:53:50;20.30;99.90
34279;DHT22;20538;51.528;9.942;2022-08-19T06:56:19;20.30;99.90
34279;DHT22;20538;51.528;9.942;2022-08-19T06:58:46;20.20;99.90
34279;DHT22;20538;51.528;9.942;2022-08-19T07:01:13;20.00;99.90
34279;DHT22;20538;51.528;9.942;2022-08-19T07:03:39;20.30;99.90
34279;DHT22;20538;51.528;9.942;2022-08-19T07:06:07;20.40;99.90
34279;DHT22;20538;51.528;9.942;2022-08-19T07:08:34;19.90;99.90
34279;DHT22;20538;51.528;9.942;2022-08-19T07:11:02;20.00;99.90
34279;DHT22;20538;51.528;9.942;2022-08-19T07:13:30;20.20;99.90
34279;DHT22;20538;51.528;9.942;2022-08-19T07:16:01;20.50;99.90
34279;DHT22;20538;51.528;9.942;2022-08-19T07:18:27;20.50;99.90
34279;DHT22;20538;51.528;9.942;2022-08-19T07:21:03;20.50;99.90
34279;DHT22;20538;51.528;9.942;2022-08-19T07:23:29;20.40;99.90
34279;DHT22;20538;51.528;9.942;2022-08-19T07:25:55;20.30;99.90
34279;DHT22;20538;51.528;9.942;2022-08-19T07:28:20;20.40;99.90
34279;DHT22;20538;51.528;9.942;2022-08-19T07:30:47;20.50;99.90
34279;DHT22;20538;51.528;9.942;2022-08-19T07:33:15;20.80;99.90
34279;DHT22;20538;51.528;9.942;2022-08-19T07:35:43;20.90;99.90
34279;DHT22;20538;51.528;9.942;2022-08-19T07:38:09;20.40;99.90
34279;DHT22;20538;51.528;9.942;2022-08-19T07:40:35;20.40;99.90
34279;DHT22;20538;51.528;9.942;2022-08-19T07:43:01;20.40;99.90
34279;DHT22;20538;51.528;9.942;2022-08-19T07:45:27;20.20;99.90
34279;DHT22;20538;51.528;9.942;2022-08-19T07:47:54;20.30;99.90
34279;DHT22;20538;51.528;9.942;2022-08-19T07:50:21;20.30;99.90
34279;DHT22;20538;51.528;9.942;2022-08-19T07:52:47;20.40;99.90
34279;DHT22;20538;51.528;9.942;2022-08-19T07:55:17;20.70;99.90
34279;DHT22;20538;51.528;9.942;2022-08-19T07:57:42;20.70;99.90
34279;DHT22;20538;51.528;9.942;2022-08-19T08:00:09;20.50;99.90
34279;DHT22;20538;51.528;9.942;2022-08-19T08:02:34;20.70;99.90
34279;DHT22;20538;51.528;9.942;2022-08-19T08:05:00;20.50;99.90
34279;DHT22;20538;51.528;9.942;2022-08-19T08:07:44;20.70;99.90
34279;DHT22;20538;51.528;9.942;2022-08-19T08:10:28;20.60;99.90
34279;DHT22;20538;51.528;9.942;2022-08-19T08:12:54;21.10;99.90
34279;DHT22;20538;51.528;9.942;2022-08-19T08:15:20;20.80;99.90
34279;DHT22;20538;51.528;9.942;2022-08-19T08:17:46;20.70;99.90
34279;DHT22;20538;51.528;9.942;2022-08-19T08:20:13;20.80;99.90
34279;DHT22;20538;51.528;9.942;2022-08-19T08:22:44;21.10;99.90
34279;DHT22;20538;51.528;9.942;2022-08-19T08:25:28;21.00;99.90
34279;DHT22;20538;51.528;9.942;2022-08-19T08:27:55;20.90;99.90
34279;DHT22;20538;51.528;9.942;2022-08-19T08:30:24;21.30;99.90
34279;DHT22;20538;51.528;9.942;2022-08-19T08:32:51;21.20;99.90
34279;DHT22;20538;51.528;9.942;2022-08-19T08:35:19;21.30;99.90
34279;DHT22;20538;51.528;9.942;2022-08-19T08:37:47;21.00;99.90
34279;DHT22;20538;51.528;9.942;2022-08-19T08:40:39;21.20;99.90
34279;DHT22;20538;51.528;9.942;2022-08-19T08:45:43;21.00;99.90
34279;DHT22;20538;51.528;9.942;2022-08-19T08:48:54;20.80;99.90
34279;DHT22;20538;51.528;9.942;2022-08-19T08:51:29;20.90;99.90
34279;DHT22;20538;51.528;9.942;2022-08-19T08:53:59;21.30;99.90
34279;DHT22;20538;51.528;9.942;2022-08-19T08:56:26;21.40;99.90
34279;DHT22;20538;51.528;9.942;2022-08-19T08:59:01;21.60;99.90
34279;DHT22;20538;51.528;9.942;2022-08-19T09:01:29;21.20;99.90
34279;DHT22;20538;51.528;9.942;2022-08-19T09:03:55;21.20;99.90
34279;DHT22;20538;51.528;9.942;2022-08-19T09:06:29;21.70;99.90
34279;DHT22;20538;51.528;9.942;2022-08-19T09:09:14;21.90;99.90
34279;DHT22;20538;51.528;9.942;2022-08-19T09:14:52;22.00;99.90
34279;DHT22;20538;51.528;9.942;2022-08-19T09:17:22;22.30;99.90
34279;DHT22;20538;51.528;9.942;2022-08-19T09:20:19;22.00;99.90
34279;DHT22;20538;51.528;9.942;2022-08-19T09:22:45;22.00;99.90
34279;DHT22;20538;51.528;9.942;2022-08-19T09:25:14;21.90;99.90
34279;DHT22;20538;51.528;9.942;2022-08-19T09:27:42;21.40;99.90
34279;DHT22;20538;51.528;9.942;2022-08-19T09:30:14;21.70;99.90
34279;DHT22;20538;51.528;9.942;2022-08-19T09:32:40;22.00;99.90
34279;DHT22;20538;51.528;9.942;2022-08-19T09:35:08;22.20;99.90
34279;DHT22;20538;51.528;9.942;2022-08-19T09:37:34;22.50;99.90
34279;DHT22;20538;51.528;9.942;2022-08-19T09:39:59;22.80;99.90
34279;DHT22;20538;51.528;9.942;2022-08-19T09:42:25;22.00;99.90
34279;DHT22;20538;51.528;9.942;2022-08-19T09:44:51;22.30;99.90
34279;DHT22;20538;51.528;9.942;2022-08-19T09:47:16;22.00;99.90
34279;DHT22;20538;51.528;9.942;2022-08-19T09:49:42;22.40;99.90
34279;DHT22;20538;51.528;9.942;2022-08-19T09:52:11;22.80;99.90
34279;DHT22;20538;51.528;9.942;2022-08-19T09:54:38;23.30;99.90
34279;DHT22;20538;51.528;9.942;2022-08-19T09:57:04;23.00;99.90
34279;DHT22;20538;51.528;9.942;2022-08-19T09:59:30;22.70;99.90
34279;DHT22;20538;51.528;9.942;2022-08-19T10:01:56;22.40;99.90
34279;DHT22;20538;51.528;9.942;2022-08-19T10:04:24;23.10;99.90
34279;DHT22;20538;51.528;9.942;2022-08-19T10:07:11;22.60;99.90
34279;DHT22;20538;51.528;9.942;2022-08-19T10:09:37;22.90;99.90
34279;DHT22;20538;51.528;9.942;2022-08-19T10:12:04;22.50;99.90
34279;DHT22;20538;51.528;9.942;2022-08-19T10:14:30;23.10;99.90
34279;DHT22;20538;51.528;9.942;2022-08-19T10:16:56;23.50;99.90
34279;DHT22;20538;51.528;9.942;2022-08-19T10:19:22;23.30;99.90
34279;DHT22;20538;51.528;9.942;2022-08-19T10:21:48;23.40;99.90
34279;DHT22;20538;51.528;9.942;2022-08-19T10:24:14;23.10;99.90
34279;DHT22;20538;51.528;9.942;2022-08-19T10:26:40;23.60;99.90
34279;DHT22;20538;51.528;9.942;2022-08-19T10:29:11;23.90;99.90
34279;DHT22;20538;51.528;9.942;2022-08-19T10:31:37;23.80;99.90
34279;DHT22;20538;51.528;9.942;2022-08-19T10:34:03;23.90;99.90
34279;DHT22;20538;51.528;9.942;2022-08-19T10:36:34;23.20;99.90
34279;DHT22;20538;51.528;9.942;2022-08-19T10:39:04;23.60;99.90
34279;DHT22;20538;51.528;9.942;2022-08-19T10:41:33;24.00;99.90
34279;DHT22;20538;51.528;9.942;2022-08-19T10:44:06;24.10;99.90
34279;DHT22;20538;51.528;9.942;2022-08-19T10:46:34;24.30;99.90
34279;DHT22;20538;51.528;9.942;2022-08-19T10:49:02;24.00;99.90
34279;DHT22;20538;51.528;9.942;2022-08-19T10:51:28;23.70;99.90
34279;DHT22;20538;51.528;9.942;2022-08-19T10:54:13;24.30;99.90
34279;DHT22;20538;51.528;9.942;2022-08-19T10:56:38;24.40;99.90
34279;DHT22;20538;51.528;9.942;2022-08-19T10:59:21;24.40;99.90
34279;DHT22;20538;51.528;9.942;2022-08-19T11:01:48;24.50;99.90
34279;DHT22;20538;51.528;9.942;2022-08-19T11:04:15;23.70;99.90
34279;DHT22;20538;51.528;9.942;2022-08-19T11:06:43;24.10;99.90
34279;DHT22;20538;51.528;9.942;2022-08-19T11:09:11;24.10;99.90
34279;DHT22;20538;51.528;9.942;2022-08-19T11:11:37;24.50;99.90
34279;DHT22;20538;51.528;9.942;2022-08-19T11:14:16;24.80;99.90
34279;DHT22;20538;51.528;9.942;2022-08-19T11:16:44;25.20;99.90
34279;DHT22;20538;51.528;9.942;2022-08-19T11:19:11;24.30;99.90
34279;DHT22;20538;51.528;9.942;2022-08-19T11:21:40;24.30;99.90
34279;DHT22;20538;51.528;9.942;2022-08-19T11:24:10;24.40;99.90
34279;DHT22;20538;51.528;9.942;2022-08-19T11:26:37;24.00;99.90
34279;DHT22;20538;51.528;9.942;2022-08-19T11:29:04;23.90;99.90
34279;DHT22;20538;51.528;9.942;2022-08-19T11:31:34;24.10;99.90
34279;DHT22;20538;51.528;9.942;2022-08-19T11:34:04;23.90;99.90
34279;DHT22;20538;51.528;9.942;2022-08-19T11:36:30;24.10;99.90
34279;DHT22;20538;51.528;9.942;2022-08-19T11:38:58;24.40;99.90
34279;DHT22;20538;51.528;9.942;2022-08-19T11:41:24;24.70;99.90
34279;DHT22;20538;51.528;9.942;2022-08-19T11:43:51;24.80;99.90
34279;DHT22;20538;51.528;9.942;2022-08-19T11:46:18;24.90;99.90
34279;DHT22;20538;51.528;9.942;2022-08-19T11:48:44;24.70;99.90
34279;DHT22;20538;51.528;9.942;2022-08-19T11:51:14;24.60;99.90
34279;DHT22;20538;51.528;9.942;2022-08-19T11:53:40;24.70;99.90
34279;DHT22;20538;51.528;9.942;2022-08-19T11:56:07;24.90;99.90
34279;DHT22;20538;51.528;9.942;2022-08-19T11:58:33;25.00;99.90
34279;DHT22;20538;51.528;9.942;2022-08-19T12:00:59;24.90;98.60
34279;DHT22;20538;51.528;9.942;2022-08-19T12:03:25;24.90;99.30
34279;DHT22;20538;51.528;9.942;2022-08-19T12:05:51;25.20;98.80
34279;DHT22;20538;51.528;9.942;2022-08-19T12:08:18;25.10;98.80
34279;DHT22;20538;51.528;9.942;2022-08-19T12:10:44;24.70;99.10
34279;DHT22;20538;51.528;9.942;2022-08-19T12:13:14;24.70;99.10
34279;DHT22;20538;51.528;9.942;2022-08-19T12:15:46;24.80;98.80
34279;DHT22;20538;51.528;9.942;2022-08-19T12:18:12;24.80;99.10
34279;DHT22;20538;51.528;9.942;2022-08-19T12:20:40;24.80;98.60
34279;DHT22;20538;51.528;9.942;2022-08-19T12:23:08;24.90;98.70
34279;DHT22;20538;51.528;9.942;2022-08-19T12:25:35;25.20;98.20
34279;DHT22;20538;51.528;9.942;2022-08-19T12:28:02;25.30;98.20
34279;DHT22;20538;51.528;9.942;2022-08-19T12:30:28;25.30;98.10
34279;DHT22;20538;51.528;9.942;2022-08-19T12:32:54;25.30;97.80
34279;DHT22;20538;51.528;9.942;2022-08-19T12:35:20;25.30;98.00
34279;DHT22;20538;51.528;9.942;2022-08-19T12:37:48;25.20;97.80
34279;DHT22;20538;51.528;9.942;2022-08-19T12:40:15;25.40;97.90
34279;DHT22;20538;51.528;9.942;2022-08-19T12:42:43;25.50;97.70
34279;DHT22;20538;51.528;9.942;2022-08-19T12:45:13;25.60;98.00
34279;DHT22;20538;51.528;9.942;2022-08-19T12:47:39;25.80;98.40
34279;DHT22;20538;51.528;9.942;2022-08-19T12:50:05;25.90;96.80
34279;DHT22;20538;51.528;9.942;2022-08-19T12:52:34;26.00;96.00
34279;DHT22;20538;51.528;9.942;2022-08-19T12:55:04;25.80;95.70
34279;DHT22;20538;51.528;9.942;2022-08-19T12:57:30;25.50;95.60
34279;DHT22;20538;51.528;9.942;2022-08-19T13:00:05;25.80;96.10
34279;DHT22;20538;51.528;9.942;2022-08-19T13:02:34;26.00;96.80
34279;DHT22;20538;51.528;9.942;2022-08-19T13:05:00;26.00;95.30
34279;DHT22;20538;51.528;9.942;2022-08-19T13:07:26;26.30;95.60
34279;DHT22;20538;51.528;9.942;2022-08-19T13:09:52;26.40;94.10
34279;DHT22;20538;51.528;9.942;2022-08-19T13:12:18;26.50;93.90
34279;DHT22;20538;51.528;9.942;2022-08-19T13:14:45;26.60;94.10
34279;DHT22;20538;51.528;9.942;2022-08-19T13:17:15;26.60;93.50
34279;DHT22;20538;51.528;9.942;2022-08-19T13:19:41;26.20;93.80
34279;DHT22;20538;51.528;9.942;2022-08-19T13:22:06;26.30;93.10
34279;DHT22;20538;51.528;9.942;2022-08-19T13:24:32;26.60;92.70
34279;DHT22;20538;51.528;9.942;2022-08-19T13:27:02;26.30;92.30
34279;DHT22;20538;51.528;9.942;2022-08-19T13:29:27;26.30;91.60
34279;DHT22;20538;51.528;9.942;2022-08-19T13:32:11;26.10;92.20
34279;DHT22;20538;51.528;9.942;2022-08-19T13:34:56;26.40;90.90
34279;DHT22;20538;51.528;9.942;2022-08-19T13:37:21;26.50;92.20
34279;DHT22;20538;51.528;9.942;2022-08-19T13:40:08;26.40;90.50
34279;DHT22;20538;51.528;9.942;2022-08-19T13:42:36;26.60;90.60
34279;DHT22;20538;51.528;9.942;2022-08-19T13:45:02;26.40;88.80
34279;DHT22;20538;51.528;9.942;2022-08-19T13:47:28;26.50;89.40
34279;DHT22;20538;51.528;9.942;2022-08-19T13:49:54;26.50;89.10
34279;DHT22;20538;51.528;9.942;2022-08-19T13:52:19;26.10;88.30
34279;DHT22;20538;51.528;9.942;2022-08-19T13:54:45;26.30;88.00
34279;DHT22;20538;51.528;9.942;2022-08-19T13:57:10;26.20;87.90
34279;DHT22;20538;51.528;9.942;2022-08-19T13:59:38;26.40;87.90
34279;DHT22;20538;51.528;9.942;2022-08-19T14:02:04;26.10;87.50
34279;DHT22;20538;51.528;9.942;2022-08-19T14:04:30;26.00;88.20
34279;DHT22;20538;51.528;9.942;2022-08-19T14:06:56;26.20;87.50
34279;DHT22;20538;51.528;9.942;2022-08-19T14:09:22;26.60;87.40
34279;DHT22;20538;51.528;9.942;2022-08-19T14:11:47;26.60;89.00
34279;DHT22;20538;51.528;9.942;2022-08-19T14:14:13;26.60;88.60
34279;DHT22;20538;51.528;9.942;2022-08-19T14:16:38;26.70;89.10
34279;DHT22;20538;51.528;9.942;2022-08-19T14:19:04;26.70;87.90
34279;DHT22;20538;51.528;9.942;2022-08-19T14:21:30;26.70;87.80
34279;DHT22;20538;51.528;9.942;2022-08-19T14:23:55;26.70;88.00
34279;DHT22;20538;51.528;9.942;2022-08-19T14:26:22;26.60;88.20
34279;DHT22;20538;51.528;9.942;2022-08-19T14:28:48;26.50;88.10
34279;DHT22;20538;51.528;9.942;2022-08-19T14:31:16;26.60;87.50
34279;DHT22;20538;51.528;9.942;2022-08-19T14:33:47;26.30;87.20
34279;DHT22;20538;51.528;9.942;2022-08-19T14:36:13;26.00;88.30
34279;DHT22;20538;51.528;9.942;2022-08-19T14:38:38;26.40;88.40
34279;DHT22;20538;51.528;9.942;2022-08-19T14:41:23;26.40;87.80
34279;DHT22;20538;51.528;9.942;2022-08-19T14:43:51;26.70;88.70
34279;DHT22;20538;51.528;9.942;2022-08-19T14:46:20;26.80;88.50
34279;DHT22;20538;51.528;9.942;2022-08-19T14:48:46;27.00;87.90
34279;DHT22;20538;51.528;9.942;2022-08-19T14:51:13;27.00;87.20
34279;DHT22;20538;51.528;9.942;2022-08-19T14:53:40;26.90;87.90
34279;DHT22;20538;51.528;9.942;2022-08-19T14:56:13;26.50;86.50
34279;DHT22;20538;51.528;9.942;2022-08-19T14:58:40;26.40;86.90
34279;DHT22;20538;51.528;9.942;2022-08-19T15:01:08;26.50;87.00
34279;DHT22;20538;51.528;9.942;2022-08-19T15:03:34;26.60;86.80
34279;DHT22;20538;51.528;9.942;2022-08-19T15:06:01;26.80;86.80
34279;DHT22;20538;51.528;9.942;2022-08-19T15:08:30;26.70;85.10
34279;DHT22;20538;51.528;9.942;2022-08-19T15:10:56;26.80;85.60
34279;DHT22;20538;51.528;9.942;2022-08-19T15:13:25;26.90;84.00
34279;DHT22;20538;51.528;9.942;2022-08-19T15:15:52;26.90;84.10
34279;DHT22;20538;51.528;9.942;2022-08-19T15:18:18;26.50;85.10
34279;DHT22;20538;51.528;9.942;2022-08-19T15:20:46;26.60;85.00
34279;DHT22;20538;51.528;9.942;2022-08-19T15:23:13;26.70;85.10
34279;DHT22;20538;51.528;9.942;2022-08-19T15:25:39;26.70;84.90
34279;DHT22;20538;51.528;9.942;2022-08-19T15:28:07;26.80;84.50
34279;DHT22;20538;51.528;9.942;2022-08-19T15:30:37;26.90;83.70
34279;DHT22;20538;51.528;9.942;2022-08-19T15:33:03;27.30;84.10
34279;DHT22;20538;51.528;9.942;2022-08-19T15:35:29;27.40;82.10
34279;DHT22;20538;51.528;9.942;2022-08-19T15:37:56;27.30;83.40
34279;DHT22;20538;51.528;9.942;2022-08-19T15:40:23;27.30;82.10
34279;DHT22;20538;51.528;9.942;2022-08-19T15:42:49;27.00;82.70
34279;DHT22;20538;51.528;9.942;2022-08-19T15:45:16;26.70;82.60
34279;DHT22;20538;51.528;9.942;2022-08-19T15:47:42;26.80;82.50
34279;DHT22;20538;51.528;9.942;2022-08-19T15:50:12;26.80;82.30